sensor_id;sensor_type;location;lat;lon;timestamp;temperature;humidity
4187;DHT22;2107;52.306;10.484;2022-10-16T00:02:26;13.50;99.90
4187;DHT22;2107;52.306;10.484;2022-10-16T00:04:52;13.40;99.90
4187;DHT22;2107;52.306;10.484;2022-10-16T00:07:20;13.40;99.90
4187;DHT22;2107;52.306;10.484;2022-10-16T00:09:47;13.40;99.90
4187;DHT22;2107;52.306;10.484;2022-10-16T00:12:14;13.40;99.90
4187;DHT22;2107;52.306;10.484;2022-10-16T00:14:42;13.40;99.90
4187;DHT22;2107;52.306;10.484;2022-10-16T00:17:09;13.30;99.90
4187;DHT22;2107;52.306;10.484;2022-10-16T00:19:36;13.30;99.90
4187;DHT22;2107;52.306;10.484;2022-10-16T00:22:03;13.40;99.90
4187;DHT22;2107;52.306;10.484;2022-10-16T00:24:30;13.40;99.90
4187;DHT22;2107;52.306;10.484;2022-10-16T00:26:56;13.30;99.90
4187;DHT22;2107;52.306;10.484;2022-10-16T00:29:23;13.30;99.90
4187;DHT22;2107;52.306;10.484;2022-10-16T00:31:52;13.20;99.90
4187;DHT22;2107;52.306;10.484;2022-10-16T00:34:18;13.10;99.90
4187;DHT22;2107;52.306;10.484;2022-10-16T00:36:45;13.10;99.90
4187;DHT22;2107;52.306;10.484;2022-10-16T00:39:12;13.20;99.90
4187;DHT22;2107;52.306;10.484;2022-10-16T00:41:39;13.10;99.90
4187;DHT22;2107;52.306;10.484;2022-10-16T00:47:09;13.10;99.90
4187;DHT22;2107;52.306;10.484;2022-10-16T00:49:38;13.10;99.90
4187;DHT22;2107;52.306;10.484;2022-10-16T00:52:05;13.00;99.90
4187;DHT22;2107;52.306;10.484;2022-10-16T00:54:33;13.10;99.90
4187;DHT22;2107;52.306;10.484;2022-10-16T00:57:03;13.10;99.90
4187;DHT22;2107;52.306;10.484;2022-10-16T00:59:33;13.10;99.90
4187;DHT22;2107;52.306;10.484;2022-10-16T01:02:00;13.10;99.90
4187;DHT22;2107;52.306;10.484;2022-10-16T01:04:32;13.20;99.90
4187;DHT22;2107;52.306;10.484;2022-10-16T01:07:07;13.30;99.90
4187;DHT22;2107;52.306;10.484;2022-10-16T01:09:47;13.40;99.90
4187;DHT22;2107;52.306;10.484;2022-10-16T01:12:22;13.40;99.90
4187;DHT22;2107;52.306;10.484;2022-10-16T01:14:54;13.50;99.90
4187;DHT22;2107;52.306;10.484;2022-10-16T01:17:27;13.50;99.90
4187;DHT22;2107;52.306;10.484;2022-10-16T01:20:07;13.60;99.90
4187;DHT22;2107;52.306;10.484;2022-10-16T01:22:44;13.60;99.90
4187;DHT22;2107;52.306;10.484;2022-10-16T01:25:19;13.60;99.90
4187;DHT22;2107;52.306;10.484;2022-10-16T01:27:50;13.60;99.90
4187;DHT22;2107;52.306;10.484;2022-10-16T01:30:21;13.60;99.90
4187;DHT22;2107;52.306;10.484;2022-10-16T01:32:52;13.60;99.90
4187;DHT22;2107;52.306;10.484;2022-10-16T01:35:24;13.60;99.90
4187;DHT22;2107;52.306;10.484;2022-10-16T01:37:55;13.60;99.90
4187;DHT22;2107;52.306;10.484;2022-10-16T01:40:26;13.60;99.90
4187;DHT22;2107;52.306;10.484;2022-10-16T01:42:58;13.60;99.90
4187;DHT22;2107;52.306;10.484;2022-10-16T01:45:28;13.50;99.90
4187;DHT22;2107;52.306;10.484;2022-10-16T01:47:59;13.50;99.90
4187;DHT22;2107;52.306;10.484;2022-10-16T01:50:31;13.50;99.90
4187;DHT22;2107;52.306;10.484;2022-10-16T01:52:59;13.50;99.90
4187;DHT22;2107;52.306;10.484;2022-10-16T01:55:30;13.50;99.90
4187;DHT22;2107;52.306;10.484;2022-10-16T01:58:02;13.50;99.90
4187;DHT22;2107;52.306;10.484;2022-10-16T02:00:31;13.50;99.90
4187;DHT22;2107;52.306;10.484;2022-10-16T02:02:58;13.40;99.90
4187;DHT22;2107;52.306;10.484;2022-10-16T02:05:32;13.50;99.90
4187;DHT22;2107;52.306;10.484;2022-10-16T02:08:00;13.50;99.90
4187;DHT22;2107;52.306;10.484;2022-10-16T02:10:27;13.50;99.90
4187;DHT22;2107;52.306;10.484;2022-10-16T02:12:58;13.50;99.90
4187;DHT22;2107;52.306;10.484;2022-10-16T02:15:27;13.50;99.90
4187;DHT22;2107;52.306;10.484;2022-10-16T02:17:54;13.50;99.90
4187;DHT22;2107;52.306;10.484;2022-10-16T02:20:25;13.50;99.90
4187;DHT22;2107;52.306;10.484;2022-10-16T02:22:53;13.50;99.90
4187;DHT22;2107;52.306;10.484;2022-10-16T02:25:24;13.50;99.90
4187;DHT22;2107;52.306;10.484;2022-10-16T02:27:55;13.60;99.90
4187;DHT22;2107;52.306;10.484;2022-10-16T02:30:30;13.60;99.90
4187;DHT22;2107;52.306;10.484;2022-10-16T02:33:00;13.60;99.90
4187;DHT22;2107;52.306;10.484;2022-10-16T02:35:29;13.60;99.90
4187;DHT22;2107;52.306;10.484;2022-10-16T02:37:57;13.60;99.90
4187;DHT22;2107;52.306;10.484;2022-10-16T02:40:24;13.60;99.90
4187;DHT22;2107;52.306;10.484;2022-10-16T02:42:53;13.70;99.90
4187;DHT22;2107;52.306;10.484;2022-10-16T02:45:21;13.70;99.90
4187;DHT22;2107;52.306;10.484;2022-10-16T02:47:49;13.70;99.90
4187;DHT22;2107;52.306;10.484;2022-10-16T02:50:16;13.70;99.90
4187;DHT22;2107;52.306;10.484;2022-10-16T02:52:43;13.70;99.90
4187;DHT22;2107;52.306;10.484;2022-10-16T02:55:10;13.70;99.90
4187;DHT22;2107;52.306;10.484;2022-10-16T02:57:37;13.60;99.90
4187;DHT22;2107;52.306;10.484;2022-10-16T03:00:06;13.60;99.90
4187;DHT22;2107;52.306;10.484;2022-10-16T03:02:34;13.50;99.90
4187;DHT22;2107;52.306;10.484;2022-10-16T03:05:02;13.50;99.90
4187;DHT22;2107;52.306;10.484;2022-10-16T03:07:29;13.50;99.90
4187;DHT22;2107;52.306;10.484;2022-10-16T03:09:56;13.50;99.90
4187;DHT22;2107;52.306;10.484;2022-10-16T03:12:25;13.50;99.90
4187;DHT22;2107;52.306;10.484;2022-10-16T03:14:52;13.40;99.90
4187;DHT22;2107;52.306;10.484;2022-10-16T03:17:19;13.40;99.90
4187;DHT22;2107;52.306;10.484;2022-10-16T03:19:46;13.30;99.90
4187;DHT22;2107;52.306;10.484;2022-10-16T03:22:14;13.30;99.90
4187;DHT22;2107;52.306;10.484;2022-10-16T03:24:41;13.20;99.90
4187;DHT22;2107;52.306;10.484;2022-10-16T03:27:08;13.10;99.90
4187;DHT22;2107;52.306;10.484;2022-10-16T03:29:35;13.10;99.90
4187;DHT22;2107;52.306;10.484;2022-10-16T03:32:02;13.10;99.90
4187;DHT22;2107;52.306;10.484;2022-10-16T03:34:29;13.00;99.90
4187;DHT22;2107;52.306;10.484;2022-10-16T03:36:56;12.90;99.90
4187;DHT22;2107;52.306;10.484;2022-10-16T03:39:24;12.90;99.90
4187;DHT22;2107;52.306;10.484;2022-10-16T03:41:51;12.90;99.90
4187;DHT22;2107;52.306;10.484;2022-10-16T03:44:18;12.90;99.90
4187;DHT22;2107;52.306;10.484;2022-10-16T03:46:45;12.80;99.90
4187;DHT22;2107;52.306;10.484;2022-10-16T03:49:12;12.80;99.90
4187;DHT22;2107;52.306;10.484;2022-10-16T03:51:39;12.80;99.90
4187;DHT22;2107;52.306;10.484;2022-10-16T03:54:05;12.80;99.90
4187;DHT22;2107;52.306;10.484;2022-10-16T03:56:34;12.80;99.90
4187;DHT22;2107;52.306;10.484;2022-10-16T03:59:01;12.80;99.90
4187;DHT22;2107;52.306;10.484;2022-10-16T04:01:27;12.80;99.90
4187;DHT22;2107;52.306;10.484;2022-10-16T04:03:54;12.80;99.90
4187;DHT22;2107;52.306;10.484;2022-10-16T04:06:21;12.70;99.90
4187;DHT22;2107;52.306;10.484;2022-10-16T04:08:48;12.70;99.90
4187;DHT22;2107;52.306;10.484;2022-10-16T04:11:15;12.70;99.90
4187;DHT22;2107;52.306;10.484;2022-10-16T04:13:44;12.70;99.90
4187;DHT22;2107;52.306;10.484;2022-10-16T04:16:11;12.70;99.90
4187;DHT22;2107;52.306;10.484;2022-10-16T04:18:38;12.70;99.90
4187;DHT22;2107;52.306;10.484;2022-10-16T04:21:05;12.70;99.90
4187;DHT22;2107;52.306;10.484;2022-10-16T04:23:32;12.70;99.90
4187;DHT22;2107;52.306;10.484;2022-10-16T04:26:00;12.70;99.90
4187;DHT22;2107;52.306;10.484;2022-10-16T04:28:27;12.80;99.90
4187;DHT22;2107;52.306;10.484;2022-10-16T04:30:56;12.80;99.90
4187;DHT22;2107;52.306;10.484;2022-10-16T04:33:23;12.80;99.90
4187;DHT22;2107;52.306;10.484;2022-10-16T04:35:56;12.80;99.90
4187;DHT22;2107;52.306;10.484;2022-10-16T04:38:23;12.80;99.90
4187;DHT22;2107;52.306;10.484;2022-10-16T04:40:50;12.80;99.90
4187;DHT22;2107;52.306;10.484;2022-10-16T04:43:17;12.90;99.90
4187;DHT22;2107;52.306;10.484;2022-10-16T04:45:43;13.00;99.90
4187;DHT22;2107;52.306;10.484;2022-10-16T04:48:12;13.10;99.90
4187;DHT22;2107;52.306;10.484;2022-10-16T04:50:39;13.00;99.90
4187;DHT22;2107;52.306;10.484;2022-10-16T04:53:06;13.10;99.90
4187;DHT22;2107;52.306;10.484;2022-10-16T04:55:33;13.10;99.90
4187;DHT22;2107;52.306;10.484;2022-10-16T04:58:00;13.00;99.90
4187;DHT22;2107;52.306;10.484;2022-10-16T05:00:27;13.10;99.90
4187;DHT22;2107;52.306;10.484;2022-10-16T05:02:54;13.10;99.90
4187;DHT22;2107;52.306;10.484;2022-10-16T05:05:22;13.10;99.90
4187;DHT22;2107;52.306;10.484;2022-10-16T05:07:49;13.00;99.90
4187;DHT22;2107;52.306;10.484;2022-10-16T05:10:16;13.10;99.90
4187;DHT22;2107;52.306;10.484;2022-10-16T05:12:43;13.00;99.90
4187;DHT22;2107;52.306;10.484;2022-10-16T05:15:10;12.90;99.90
4187;DHT22;2107;52.306;10.484;2022-10-16T05:17:37;12.90;99.90
4187;DHT22;2107;52.306;10.484;2022-10-16T05:20:05;12.90;99.90
4187;DHT22;2107;52.306;10.484;2022-10-16T05:22:33;12.90;99.90
4187;DHT22;2107;52.306;10.484;2022-10-16T05:25:00;12.90;99.90
4187;DHT22;2107;52.306;10.484;2022-10-16T05:27:27;12.90;99.90
4187;DHT22;2107;52.306;10.484;2022-10-16T05:29:54;12.90;99.90
4187;DHT22;2107;52.306;10.484;2022-10-16T05:32:21;12.90;99.90
4187;DHT22;2107;52.306;10.484;2022-10-16T05:34:48;12.90;99.90
4187;DHT22;2107;52.306;10.484;2022-10-16T05:37:15;12.90;99.90
4187;DHT22;2107;52.306;10.484;2022-10-16T05:39:43;12.90;99.90
4187;DHT22;2107;52.306;10.484;2022-10-16T05:42:10;12.90;99.90
4187;DHT22;2107;52.306;10.484;2022-10-16T05:44:36;12.90;99.90
4187;DHT22;2107;52.306;10.484;2022-10-16T05:47:03;12.90;99.90
4187;DHT22;2107;52.306;10.484;2022-10-16T05:49:30;12.80;99.90
4187;DHT22;2107;52.306;10.484;2022-10-16T05:51:57;12.70;99.90
4187;DHT22;2107;52.306;10.484;2022-10-16T05:54:24;12.60;99.90
4187;DHT22;2107;52.306;10.484;2022-10-16T05:56:52;12.50;99.90
4187;DHT22;2107;52.306;10.484;2022-10-16T05:59:19;12.50;99.90
4187;DHT22;2107;52.306;10.484;2022-10-16T06:01:46;12.40;99.90
4187;DHT22;2107;52.306;10.484;2022-10-16T06:04:13;12.40;99.90
4187;DHT22;2107;52.306;10.484;2022-10-16T06:06:40;12.40;99.90
4187;DHT22;2107;52.306;10.484;2022-10-16T06:09:07;12.40;99.90
4187;DHT22;2107;52.306;10.484;2022-10-16T06:11:33;12.40;99.90
4187;DHT22;2107;52.306;10.484;2022-10-16T06:14:02;12.40;99.90
4187;DHT22;2107;52.306;10.484;2022-10-16T06:16:32;12.40;99.90
4187;DHT22;2107;52.306;10.484;2022-10-16T06:18:59;12.40;99.90
4187;DHT22;2107;52.306;10.484;2022-10-16T06:21:27;12.50;99.90
4187;DHT22;2107;52.306;10.484;2022-10-16T06:23:57;12.50;99.90
4187;DHT22;2107;52.306;10.484;2022-10-16T06:26:26;12.60;99.90
4187;DHT22;2107;52.306;10.484;2022-10-16T06:28:54;12.60;99.90
4187;DHT22;2107;52.306;10.484;2022-10-16T06:31:23;12.70;99.90
4187;DHT22;2107;52.306;10.484;2022-10-16T06:33:53;12.70;99.90
4187;DHT22;2107;52.306;10.484;2022-10-16T06:36:20;12.80;99.90
4187;DHT22;2107;52.306;10.484;2022-10-16T06:38:47;13.00;99.90
4187;DHT22;2107;52.306;10.484;2022-10-16T06:41:17;13.30;99.90
4187;DHT22;2107;52.306;10.484;2022-10-16T06:43:44;13.40;99.90
4187;DHT22;2107;52.306;10.484;2022-10-16T06:46:13;13.40;99.90
4187;DHT22;2107;52.306;10.484;2022-10-16T06:48:42;13.50;99.90
4187;DHT22;2107;52.306;10.484;2022-10-16T06:51:11;13.60;99.90
4187;DHT22;2107;52.306;10.484;2022-10-16T06:53:40;13.80;99.90
4187;DHT22;2107;52.306;10.484;2022-10-16T06:56:08;14.00;99.90
4187;DHT22;2107;52.306;10.484;2022-10-16T06:58:35;14.20;99.90
4187;DHT22;2107;52.306;10.484;2022-10-16T07:01:02;14.40;99.90
4187;DHT22;2107;52.306;10.484;2022-10-16T07:03:29;14.60;99.90
4187;DHT22;2107;52.306;10.484;2022-10-16T07:06:01;14.50;99.90
4187;DHT22;2107;52.306;10.484;2022-10-16T07:08:31;14.50;99.90
4187;DHT22;2107;52.306;10.484;2022-10-16T07:11:00;14.60;99.90
4187;DHT22;2107;52.306;10.484;2022-10-16T07:13:27;14.60;99.90
4187;DHT22;2107;52.306;10.484;2022-10-16T07:15:54;14.80;99.90
4187;DHT22;2107;52.306;10.484;2022-10-16T07:18:21;15.00;99.90
4187;DHT22;2107;52.306;10.484;2022-10-16T07:20:52;15.10;99.90
4187;DHT22;2107;52.306;10.484;2022-10-16T07:23:20;15.10;99.90
4187;DHT22;2107;52.306;10.484;2022-10-16T07:25:53;15.20;99.90
4187;DHT22;2107;52.306;10.484;2022-10-16T07:28:21;15.20;99.90
4187;DHT22;2107;52.306;10.484;2022-10-16T07:30:48;15.30;99.90
4187;DHT22;2107;52.306;10.484;2022-10-16T07:33:15;15.60;99.90
4187;DHT22;2107;52.306;10.484;2022-10-16T07:35:48;15.80;99.90
4187;DHT22;2107;52.306;10.484;2022-10-16T07:38:15;16.10;99.90
4187;DHT22;2107;52.306;10.484;2022-10-16T07:40:43;16.40;99.90
4187;DHT22;2107;52.306;10.484;2022-10-16T07:43:11;16.40;99.90
4187;DHT22;2107;52.306;10.484;2022-10-16T07:45:45;16.50;99.90
4187;DHT22;2107;52.306;10.484;2022-10-16T07:48:13;16.60;99.90
4187;DHT22;2107;52.306;10.484;2022-10-16T07:50:39;16.80;99.90
4187;DHT22;2107;52.306;10.484;2022-10-16T07:53:07;16.90;99.90
4187;DHT22;2107;52.306;10.484;2022-10-16T07:55:34;17.20;99.90
4187;DHT22;2107;52.306;10.484;2022-10-16T07:58:02;17.30;99.90
4187;DHT22;2107;52.306;10.484;2022-10-16T08:00:29;17.40;99.90
4187;DHT22;2107;52.306;10.484;2022-10-16T08:02:56;17.50;99.90
4187;DHT22;2107;52.306;10.484;2022-10-16T08:05:25;17.60;99.90
4187;DHT22;2107;52.306;10.484;2022-10-16T08:07:52;17.50;99.90
4187;DHT22;2107;52.306;10.484;2022-10-16T08:10:21;17.50;99.90
4187;DHT22;2107;52.306;10.484;2022-10-16T08:12:48;17.70;99.90
4187;DHT22;2107;52.306;10.484;2022-10-16T08:15:17;17.60;99.90
4187;DHT22;2107;52.306;10.484;2022-10-16T08:17:44;17.80;99.90
4187;DHT22;2107;52.306;10.484;2022-10-16T08:20:11;18.00;99.90
4187;DHT22;2107;52.306;10.484;2022-10-16T08:22:38;18.00;99.90
4187;DHT22;2107;52.306;10.484;2022-10-16T08:25:05;17.80;99.90
4187;DHT22;2107;52.306;10.484;2022-10-16T08:27:33;17.90;99.90
4187;DHT22;2107;52.306;10.484;2022-10-16T08:30:00;17.70;99.90
4187;DHT22;2107;52.306;10.484;2022-10-16T08:32:28;18.10;99.90
4187;DHT22;2107;52.306;10.484;2022-10-16T08:34:55;18.00;99.90
4187;DHT22;2107;52.306;10.484;2022-10-16T08:37:22;17.90;99.90
4187;DHT22;2107;52.306;10.484;2022-10-16T08:39:48;18.10;99.90
4187;DHT22;2107;52.306;10.484;2022-10-16T08:42:29;17.90;99.90
4187;DHT22;2107;52.306;10.484;2022-10-16T08:45:19;18.00;99.90
4187;DHT22;2107;52.306;10.484;2022-10-16T08:47:59;18.00;99.90
4187;DHT22;2107;52.306;10.484;2022-10-16T08:50:29;18.00;99.90
4187;DHT22;2107;52.306;10.484;2022-10-16T08:52:57;17.80;99.90
4187;DHT22;2107;52.306;10.484;2022-10-16T08:55:38;17.80;99.90
4187;DHT22;2107;52.306;10.484;2022-10-16T08:58:12;18.00;99.90
4187;DHT22;2107;52.306;10.484;2022-10-16T09:00:39;17.70;99.90
4187;DHT22;2107;52.306;10.484;2022-10-16T09:03:16;18.00;99.90
4187;DHT22;2107;52.306;10.484;2022-10-16T09:06:02;18.40;99.90
4187;DHT22;2107;52.306;10.484;2022-10-16T09:08:39;18.30;99.90
4187;DHT22;2107;52.306;10.484;2022-10-16T09:11:14;18.80;99.90
4187;DHT22;2107;52.306;10.484;2022-10-16T09:13:48;19.00;99.90
4187;DHT22;2107;52.306;10.484;2022-10-16T09:16:20;19.00;99.90
4187;DHT22;2107;52.306;10.484;2022-10-16T09:18:56;19.00;99.90
4187;DHT22;2107;52.306;10.484;2022-10-16T09:21:28;19.20;99.90
4187;DHT22;2107;52.306;10.484;2022-10-16T09:23:59;19.30;99.90
4187;DHT22;2107;52.306;10.484;2022-10-16T09:26:27;19.30;99.90
4187;DHT22;2107;52.306;10.484;2022-10-16T09:28:54;18.90;99.90
4187;DHT22;2107;52.306;10.484;2022-10-16T09:31:22;18.70;99.90
4187;DHT22;2107;52.306;10.484;2022-10-16T09:33:54;18.90;99.90
4187;DHT22;2107;52.306;10.484;2022-10-16T09:36:23;19.10;99.90
4187;DHT22;2107;52.306;10.484;2022-10-16T09:39:03;19.30;99.90
4187;DHT22;2107;52.306;10.484;2022-10-16T09:41:30;19.40;99.90
4187;DHT22;2107;52.306;10.484;2022-10-16T09:43:59;19.40;99.90
4187;DHT22;2107;52.306;10.484;2022-10-16T09:46:28;18.90;99.90
4187;DHT22;2107;52.306;10.484;2022-10-16T09:48:59;19.00;99.90
4187;DHT22;2107;52.306;10.484;2022-10-16T09:51:28;18.90;99.90
4187;DHT22;2107;52.306;10.484;2022-10-16T09:53:58;18.70;99.90
4187;DHT22;2107;52.306;10.484;2022-10-16T09:56:26;19.10;99.90
4187;DHT22;2107;52.306;10.484;2022-10-16T09:58:55;19.30;99.90
4187;DHT22;2107;52.306;10.484;2022-10-16T10:01:26;19.90;99.90
4187;DHT22;2107;52.306;10.484;2022-10-16T10:03:57;19.60;99.90
4187;DHT22;2107;52.306;10.484;2022-10-16T10:06:30;19.60;99.90
4187;DHT22;2107;52.306;10.484;2022-10-16T10:09:03;19.30;99.90
4187;DHT22;2107;52.306;10.484;2022-10-16T10:11:45;18.90;99.90
4187;DHT22;2107;52.306;10.484;2022-10-16T10:14:21;19.20;99.90
4187;DHT22;2107;52.306;10.484;2022-10-16T10:16:49;19.40;99.90
4187;DHT22;2107;52.306;10.484;2022-10-16T10:19:20;19.60;99.90
4187;DHT22;2107;52.306;10.484;2022-10-16T10:21:47;19.70;99.90
4187;DHT22;2107;52.306;10.484;2022-10-16T10:24:17;19.70;99.90
4187;DHT22;2107;52.306;10.484;2022-10-16T10:26:50;19.70;99.90
4187;DHT22;2107;52.306;10.484;2022-10-16T10:29:30;19.50;99.90
4187;DHT22;2107;52.306;10.484;2022-10-16T10:32:09;20.00;99.90
4187;DHT22;2107;52.306;10.484;2022-10-16T10:34:54;20.10;99.90
4187;DHT22;2107;52.306;10.484;2022-10-16T10:37:39;20.40;99.90
4187;DHT22;2107;52.306;10.484;2022-10-16T10:40:15;20.40;99.90
4187;DHT22;2107;52.306;10.484;2022-10-16T10:42:47;19.90;99.90
4187;DHT22;2107;52.306;10.484;2022-10-16T10:45:24;20.20;99.90
4187;DHT22;2107;52.306;10.484;2022-10-16T10:48:13;20.90;99.90
4187;DHT22;2107;52.306;10.484;2022-10-16T10:50:49;21.30;99.90
4187;DHT22;2107;52.306;10.484;2022-10-16T10:53:29;21.50;99.90
4187;DHT22;2107;52.306;10.484;2022-10-16T10:56:08;21.40;99.90
4187;DHT22;2107;52.306;10.484;2022-10-16T10:59:08;22.00;99.90
4187;DHT22;2107;52.306;10.484;2022-10-16T11:01:46;22.30;99.90
4187;DHT22;2107;52.306;10.484;2022-10-16T11:04:33;22.20;99.90
4187;DHT22;2107;52.306;10.484;2022-10-16T11:07:11;21.90;99.90
4187;DHT22;2107;52.306;10.484;2022-10-16T11:09:44;20.80;99.90
4187;DHT22;2107;52.306;10.484;2022-10-16T11:12:16;20.90;99.90
4187;DHT22;2107;52.306;10.484;2022-10-16T11:14:49;21.00;99.90
4187;DHT22;2107;52.306;10.484;2022-10-16T11:17:23;21.10;99.90
4187;DHT22;2107;52.306;10.484;2022-10-16T11:19:55;21.20;99.90
4187;DHT22;2107;52.306;10.484;2022-10-16T11:22:30;21.30;99.90
4187;DHT22;2107;52.306;10.484;2022-10-16T11:25:02;21.40;99.90
4187;DHT22;2107;52.306;10.484;2022-10-16T11:27:37;21.20;99.90
4187;DHT22;2107;52.306;10.484;2022-10-16T11:30:14;21.30;99.90
4187;DHT22;2107;52.306;10.484;2022-10-16T11:32:52;21.60;99.90
4187;DHT22;2107;52.306;10.484;2022-10-16T11:35:25;21.70;99.90
4187;DHT22;2107;52.306;10.484;2022-10-16T11:37:58;21.90;99.90
4187;DHT22;2107;52.306;10.484;2022-10-16T11:40:30;22.30;99.90
4187;DHT22;2107;52.306;10.484;2022-10-16T11:43:02;22.60;99.90
4187;DHT22;2107;52.306;10.484;2022-10-16T11:45:34;22.80;99.90
4187;DHT22;2107;52.306;10.484;2022-10-16T11:48:09;22.90;99.90
4187;DHT22;2107;52.306;10.484;2022-10-16T11:50:43;23.30;99.90
4187;DHT22;2107;52.306;10.484;2022-10-16T11:53:21;23.80;99.90
4187;DHT22;2107;52.306;10.484;2022-10-16T11:55:50;23.30;99.90
4187;DHT22;2107;52.306;10.484;2022-10-16T11:58:23;23.40;99.90
4187;DHT22;2107;52.306;10.484;2022-10-16T12:00:58;22.90;99.90
4187;DHT22;2107;52.306;10.484;2022-10-16T12:03:29;23.30;99.90
4187;DHT22;2107;52.306;10.484;2022-10-16T12:06:09;23.70;99.90
4187;DHT22;2107;52.306;10.484;2022-10-16T12:08:40;23.30;99.90
4187;DHT22;2107;52.306;10.484;2022-10-16T12:11:08;23.00;99.90
4187;DHT22;2107;52.306;10.484;2022-10-16T12:13:37;22.50;99.90
4187;DHT22;2107;52.306;10.484;2022-10-16T12:16:22;22.00;99.90
4187;DHT22;2107;52.306;10.484;2022-10-16T12:18:50;22.30;99.90
4187;DHT22;2107;52.306;10.484;2022-10-16T12:21:31;22.60;99.90
4187;DHT22;2107;52.306;10.484;2022-10-16T12:24:03;22.50;99.90
4187;DHT22;2107;52.306;10.484;2022-10-16T12:26:32;22.30;99.90
4187;DHT22;2107;52.306;10.484;2022-10-16T12:29:13;22.20;99.90
4187;DHT22;2107;52.306;10.484;2022-10-16T12:31:44;22.20;99.90
4187;DHT22;2107;52.306;10.484;2022-10-16T12:34:21;21.80;99.90
4187;DHT22;2107;52.306;10.484;2022-10-16T12:36:49;21.90;99.90
4187;DHT22;2107;52.306;10.484;2022-10-16T12:39:23;22.00;99.90
4187;DHT22;2107;52.306;10.484;2022-10-16T12:42:01;22.10;99.90
4187;DHT22;2107;52.306;10.484;2022-10-16T12:44:33;21.60;99.90
4187;DHT22;2107;52.306;10.484;2022-10-16T12:47:01;21.90;99.90
4187;DHT22;2107;52.306;10.484;2022-10-16T12:49:35;21.80;99.90
4187;DHT22;2107;52.306;10.484;2022-10-16T12:52:03;21.80;99.90
4187;DHT22;2107;52.306;10.484;2022-10-16T12:54:36;21.90;99.90
4187;DHT22;2107;52.306;10.484;2022-10-16T12:57:19;22.10;99.90
4187;DHT22;2107;52.306;10.484;2022-10-16T12:59:57;22.10;99.90
4187;DHT22;2107;52.306;10.484;2022-10-16T13:05:44;21.70;99.90
4187;DHT22;2107;52.306;10.484;2022-10-16T13:08:25;22.00;99.90
4187;DHT22;2107;52.306;10.484;2022-10-16T13:11:04;22.00;99.90
4187;DHT22;2107;52.306;10.484;2022-10-16T13:13:51;22.50;99.90
4187;DHT22;2107;52.306;10.484;2022-10-16T13:16:25;22.10;99.90
4187;DHT22;2107;52.306;10.484;2022-10-16T13:19:01;21.80;99.90
4187;DHT22;2107;52.306;10.484;2022-10-16T13:21:39;21.40;99.90
4187;DHT22;2107;52.306;10.484;2022-10-16T13:24:19;21.50;99.90
4187;DHT22;2107;52.306;10.484;2022-10-16T13:26:55;21.50;99.90
4187;DHT22;2107;52.306;10.484;2022-10-16T13:29:30;21.70;99.90
4187;DHT22;2107;52.306;10.484;2022-10-16T13:31:58;21.70;99.90
4187;DHT22;2107;52.306;10.484;2022-10-16T13:34:26;22.20;99.90
4187;DHT22;2107;52.306;10.484;2022-10-16T13:36:53;22.10;99.90
4187;DHT22;2107;52.306;10.484;2022-10-16T13:39:22;22.00;99.90
4187;DHT22;2107;52.306;10.484;2022-10-16T13:42:04;21.80;99.90
4187;DHT22;2107;52.306;10.484;2022-10-16T13:44:36;22.60;99.90
4187;DHT22;2107;52.306;10.484;2022-10-16T13:47:10;23.40;99.90
4187;DHT22;2107;52.306;10.484;2022-10-16T13:49:41;24.10;99.90
4187;DHT22;2107;52.306;10.484;2022-10-16T13:52:17;23.70;99.90
4187;DHT22;2107;52.306;10.484;2022-10-16T13:54:44;23.50;99.90
4187;DHT22;2107;52.306;10.484;2022-10-16T13:57:14;23.70;99.90
4187;DHT22;2107;52.306;10.484;2022-10-16T13:59:41;24.50;99.90
4187;DHT22;2107;52.306;10.484;2022-10-16T14:02:17;24.80;99.60
4187;DHT22;2107;52.306;10.484;2022-10-16T14:04:46;25.70;98.80
4187;DHT22;2107;52.306;10.484;2022-10-16T14:07:16;24.40;99.10
4187;DHT22;2107;52.306;10.484;2022-10-16T14:09:48;23.60;99.90
4187;DHT22;2107;52.306;10.484;2022-10-16T14:12:17;24.40;99.50
4187;DHT22;2107;52.306;10.484;2022-10-16T14:14:46;24.90;98.50
4187;DHT22;2107;52.306;10.484;2022-10-16T14:17:14;24.80;97.90
4187;DHT22;2107;52.306;10.484;2022-10-16T14:19:45;25.10;97.90
4187;DHT22;2107;52.306;10.484;2022-10-16T14:22:26;25.90;97.10
4187;DHT22;2107;52.306;10.484;2022-10-16T14:24:55;25.20;96.30
4187;DHT22;2107;52.306;10.484;2022-10-16T14:27:28;25.30;96.70
4187;DHT22;2107;52.306;10.484;2022-10-16T14:30:12;23.70;97.40
4187;DHT22;2107;52.306;10.484;2022-10-16T14:32:40;22.50;99.30
4187;DHT22;2107;52.306;10.484;2022-10-16T14:35:23;21.30;99.90
4187;DHT22;2107;52.306;10.484;2022-10-16T14:37:51;21.10;99.90
4187;DHT22;2107;52.306;10.484;2022-10-16T14:40:18;20.90;99.90
4187;DHT22;2107;52.306;10.484;2022-10-16T14:42:48;20.70;99.90
4187;DHT22;2107;52.306;10.484;2022-10-16T14:45:19;20.30;99.90
4187;DHT22;2107;52.306;10.484;2022-10-16T14:47:49;20.20;99.90
4187;DHT22;2107;52.306;10.484;2022-10-16T14:50:17;20.00;99.90
4187;DHT22;2107;52.306;10.484;2022-10-16T14:52:43;19.90;99.90
4187;DHT22;2107;52.306;10.484;2022-10-16T14:55:11;19.80;99.90
4187;DHT22;2107;52.306;10.484;2022-10-16T14:57:38;19.70;99.90
4187;DHT22;2107;52.306;10.484;2022-10-16T15:00:15;19.90;99.90
4187;DHT22;2107;52.306;10.484;2022-10-16T15:02:42;20.00;99.90
4187;DHT22;2107;52.306;10.484;2022-10-16T15:05:16;20.10;99.90
4187;DHT22;2107;52.306;10.484;2022-10-16T15:07:43;20.10;99.90
4187;DHT22;2107;52.306;10.484;2022-10-16T15:10:11;20.10;99.90
4187;DHT22;2107;52.306;10.484;2022-10-16T15:12:38;20.10;99.90
4187;DHT22;2107;52.306;10.484;2022-10-16T15:15:35;20.00;99.90
4187;DHT22;2107;52.306;10.484;2022-10-16T15:18:04;19.70;99.90
4187;DHT22;2107;52.306;10.484;2022-10-16T15:20:32;19.40;99.90
4187;DHT22;2107;52.306;10.484;2022-10-16T15:23:00;19.30;99.90
4187;DHT22;2107;52.306;10.484;2022-10-16T15:25:38;19.10;99.90
4187;DHT22;2107;52.306;10.484;2022-10-16T15:28:06;18.80;99.90
4187;DHT22;2107;52.306;10.484;2022-10-16T15:30:35;18.60;99.90
4187;DHT22;2107;52.306;10.484;2022-10-16T15:33:03;18.50;99.90
4187;DHT22;2107;52.306;10.484;2022-10-16T15:35:30;18.40;99.90
4187;DHT22;2107;52.306;10.484;2022-10-16T15:37:57;18.30;99.90
4187;DHT22;2107;52.306;10.484;2022-10-16T15:40:24;18.20;99.90
4187;DHT22;2107;52.306;10.484;2022-10-16T15:42:51;18.10;99.90
4187;DHT22;2107;52.306;10.484;2022-10-16T15:45:18;18.00;99.90
4187;DHT22;2107;52.306;10.484;2022-10-16T15:47:47;17.90;99.90
4187;DHT22;2107;52.306;10.484;2022-10-16T15:50:14;17.90;99.90
4187;DHT22;2107;52.306;10.484;2022-10-16T15:52:42;17.70;99.90
4187;DHT22;2107;52.306;10.484;2022-10-16T15:55:11;17.60;99.90
4187;DHT22;2107;52.306;10.484;2022-10-16T15:57:38;17.40;99.90
4187;DHT22;2107;52.306;10.484;2022-10-16T16:00:08;17.20;99.90
4187;DHT22;2107;52.306;10.484;2022-10-16T16:02:35;17.10;99.90
4187;DHT22;2107;52.306;10.484;2022-10-16T16:05:08;16.90;99.90
4187;DHT22;2107;52.306;10.484;2022-10-16T16:07:35;16.80;99.90
4187;DHT22;2107;52.306;10.484;2022-10-16T16:10:04;16.60;99.90
4187;DHT22;2107;52.306;10.484;2022-10-16T16:12:31;16.50;99.90